This is the latest recevied weather packets stored in our database for station/object K7OWW-2. If no packets are shown the sender has not sent any weather packets the latest 10 day(s).
| Time | Temp. | Humidity | Pressure | Rain* | Wind** | Luminosity | Snow |
|---|---|---|---|---|---|---|---|
| 1788293330 | 20° C | 44% | 1007.1 hPa | 0 mm | - | - | - |
| 1788292730 | 19.44° C | 43% | 1007.1 hPa | 0 mm | - | - | - |
| 1788292130 | 20° C | 42% | 1007.1 hPa | 0 mm | - | - | - |
| 1788291540 | 20.56° C | 41% | 1007.2 hPa | 0 mm | - | - | - |
| 1788290930 | 20° C | 43% | 1007.4 hPa | 0 mm | - | - | - |
| 1788287331 | 19.44° C | 44% | 1008 hPa | 0 mm | - | - | - |
| 1788286731 | 20° C | 44% | 1008.2 hPa | 0 mm | - | - | - |
| 1788286131 | 19.44° C | 47% | 1008.2 hPa | 0 mm | - | - | - |
| 1788284931 | 18.89° C | 47% | 1008.5 hPa | 0 mm | - | - | - |
| 1788284331 | 18.33° C | 49% | 1008.5 hPa | 0 mm | - | - | - |
| 1788283731 | 17.78° C | 49% | 1008.6 hPa | 0 mm | - | - | - |
| 1788283131 | 17.78° C | 50% | 1008.6 hPa | 0 mm | - | - | - |
| 1788282531 | 17.22° C | 51% | 1008.5 hPa | 0 mm | - | - | - |
| 1788281931 | 16.67° C | 53% | 1008.7 hPa | 0 mm | - | - | - |
| 1788281331 | 16.67° C | 56% | 1008.8 hPa | 0 mm | - | - | - |
| 1788280733 | 16.11° C | 58% | 1008.9 hPa | 0 mm | - | - | - |
| 1788280131 | 15° C | 62% | 1008.9 hPa | 0 mm | - | - | - |
| 1788279531 | 14.44° C | 66% | 1009.1 hPa | 0 mm | - | - | - |
| 1788278931 | 13.33° C | 69% | 1009.1 hPa | 0 mm | - | - | - |
| 1788278331 | 12.22° C | 73% | 1009.3 hPa | 0 mm | - | - | - |
| 1788277731 | 10.56° C | 81% | 1009.4 hPa | 0 mm | - | - | - |
| 1788277131 | 8.33° C | 85% | 1009.3 hPa | 0 mm | - | - | - |
| 1788276531 | 6.67° C | 84% | 1009.3 hPa | 0 mm | - | - | - |
| 1788275931 | 5.56° C | 85% | 1009.5 hPa | 0 mm | - | - | - |
| 1788275331 | 5° C | 85% | 1009.5 hPa | 0 mm | - | - | - |
* Rain latest hour (hover to see other rain measurements)
** Current wind speed in m/s (hover to see current wind gust speed)